createdAt,value
2023-02-08T00:01:28.541Z,103315.69
2023-02-08T00:04:13.758Z,103306.16
2023-02-08T00:06:59.154Z,103307.38
2023-02-08T00:09:44.801Z,103305.63
2023-02-08T00:12:30.015Z,103311.53
2023-02-08T00:15:15.705Z,103318.13
2023-02-08T00:18:01.238Z,103304.63
2023-02-08T00:20:46.705Z,103309.00
2023-02-08T00:23:32.306Z,103307.09
2023-02-08T00:26:17.814Z,103299.16
2023-02-08T00:29:03.938Z,103301.84
2023-02-08T00:31:49.235Z,103292.41
2023-02-08T00:34:35.284Z,103290.81
2023-02-08T00:37:21.045Z,103289.25
2023-02-08T00:40:08.651Z,103288.44
2023-02-08T00:42:54.346Z,103278.94
2023-02-08T00:45:39.756Z,103279.59
2023-02-08T00:48:26.130Z,103271.56
2023-02-08T00:51:15.346Z,103256.06
2023-02-08T00:54:00.608Z,103258.66
2023-02-08T00:56:46.500Z,103257.16
2023-02-08T00:59:32.241Z,103248.81
2023-02-08T01:02:17.649Z,103246.53
2023-02-08T01:05:03.618Z,103253.72
2023-02-08T01:07:49.260Z,103256.59
2023-02-08T01:10:34.571Z,103240.41
2023-02-08T01:13:19.984Z,103233.63
2023-02-08T01:16:10.453Z,103232.28
2023-02-08T01:18:58.253Z,103224.63
2023-02-08T01:21:44.435Z,103218.06
2023-02-08T01:24:29.611Z,103209.50
2023-02-08T01:27:15.950Z,103208.91
2023-02-08T01:30:01.384Z,103211.69
2023-02-08T01:32:47.311Z,103208.31
2023-02-08T01:35:32.668Z,103208.41
2023-02-08T01:38:18.731Z,103208.50
2023-02-08T01:41:06.072Z,103204.22
2023-02-08T01:44:02.272Z,103189.72
2023-02-08T01:46:51.329Z,103178.63
2023-02-08T01:49:39.247Z,103180.38
2023-02-08T01:52:28.891Z,103172.72
2023-02-08T01:55:26.251Z,103166.88
2023-02-08T01:58:13.039Z,103168.84
2023-02-08T02:00:58.588Z,103163.88
2023-02-08T02:03:44.392Z,103163.97
2023-02-08T02:06:38.192Z,103160.00
2023-02-08T02:09:36.964Z,103147.16
2023-02-08T02:12:22.694Z,103151.53
2023-02-08T02:15:09.970Z,103134.22
2023-02-08T02:17:55.534Z,103136.13
2023-02-08T02:21:01.791Z,103139.59
2023-02-08T02:24:24.552Z,103131.84
2023-02-08T02:27:39.027Z,103132.53
2023-02-08T02:31:02.949Z,103118.97
2023-02-08T02:34:01.203Z,103111.84
2023-02-08T02:36:46.720Z,103096.19
2023-02-08T02:39:51.045Z,103091.31
2023-02-08T02:43:32.466Z,103071.94
2023-02-08T02:46:40.444Z,103069.16
2023-02-08T02:49:36.374Z,103071.16
2023-02-08T02:53:09.401Z,103067.44
2023-02-08T02:56:05.162Z,103065.41
2023-02-08T02:58:53.208Z,103053.66
2023-02-08T03:01:40.210Z,103052.28
2023-02-08T03:04:34.849Z,103060.53
2023-02-08T03:07:20.699Z,103061.34
2023-02-08T03:10:24.714Z,103055.91
2023-02-08T03:13:37.408Z,103042.16
2023-02-08T03:16:49.402Z,103036.81
2023-02-08T03:19:56.883Z,103033.56
2023-02-08T03:23:33.499Z,103033.34
2023-02-08T03:26:50.403Z,103030.78
2023-02-08T03:30:02.354Z,103035.19
2023-02-08T03:32:58.425Z,103033.25
2023-02-08T03:36:10.940Z,103045.44
2023-02-08T03:38:56.430Z,103038.81
2023-02-08T03:41:47.269Z,103031.63
2023-02-08T03:44:36.217Z,103030.09
2023-02-08T03:47:32.825Z,103034.88
2023-02-08T03:50:22.263Z,103028.56
2023-02-08T03:53:09.416Z,103025.97
2023-02-08T03:56:02.064Z,103035.53
2023-02-08T03:58:56.015Z,103044.69
2023-02-08T04:01:46.743Z,103061.47
2023-02-08T04:04:35.949Z,103054.03
2023-02-08T04:07:21.762Z,103049.47
2023-02-08T04:10:07.748Z,103050.28
2023-02-08T04:12:53.131Z,103048.59
2023-02-08T04:15:38.603Z,103042.88
2023-02-08T04:18:23.889Z,103041.25
2023-02-08T04:21:09.219Z,103042.44
2023-02-08T04:23:54.645Z,103046.50
2023-02-08T04:26:39.959Z,103047.97
2023-02-08T04:29:25.321Z,103057.59
2023-02-08T04:32:11.936Z,103050.69
2023-02-08T04:34:57.269Z,103049.63
2023-02-08T04:37:42.862Z,103058.34
2023-02-08T04:40:28.500Z,103083.06
2023-02-08T04:43:13.928Z,103093.78
2023-02-08T04:45:59.719Z,103093.59
2023-02-08T04:48:45.072Z,103087.34
2023-02-08T04:51:30.592Z,103077.22
2023-02-08T04:54:15.952Z,103073.25
2023-02-08T04:57:01.321Z,103067.88
2023-02-08T04:59:46.735Z,103048.16
2023-02-08T05:02:32.101Z,103031.84
2023-02-08T05:05:17.486Z,103022.91
2023-02-08T05:08:03.548Z,103003.78
2023-02-08T05:10:49.133Z,102997.03
2023-02-08T05:13:34.494Z,102974.50
2023-02-08T05:16:19.773Z,102971.44
2023-02-08T05:19:05.017Z,102968.94
2023-02-08T05:21:50.343Z,102957.91
2023-02-08T05:24:35.755Z,102950.09
2023-02-08T05:27:21.651Z,102945.22
2023-02-08T05:30:07.660Z,102950.63
2023-02-08T05:32:53.275Z,102953.28
2023-02-08T05:35:38.630Z,102962.19
2023-02-08T05:38:24.160Z,102973.72
2023-02-08T05:41:09.995Z,102959.03
2023-02-08T05:43:55.373Z,102948.22
2023-02-08T05:46:40.782Z,102934.91
2023-02-08T05:49:26.524Z,102926.53
2023-02-08T05:52:11.923Z,102922.56
2023-02-08T05:54:57.203Z,102917.28
2023-02-08T05:57:42.644Z,102930.84
2023-02-08T06:00:28.105Z,102934.91
2023-02-08T06:03:13.621Z,102940.97
2023-02-08T06:06:01.588Z,102922.50
2023-02-08T06:08:47.709Z,102914.75
2023-02-08T06:11:33.836Z,102902.69
2023-02-08T06:14:19.280Z,102885.19
2023-02-08T06:17:04.521Z,102898.59
2023-02-08T06:19:49.937Z,102899.78
2023-02-08T06:22:36.011Z,102919.81
2023-02-08T06:25:21.533Z,102920.16
2023-02-08T06:28:09.039Z,102915.44
2023-02-08T06:30:54.207Z,102914.44
2023-02-08T06:33:39.677Z,102916.25
2023-02-08T06:36:25.082Z,102913.47
2023-02-08T06:39:10.274Z,102910.38
2023-02-08T06:41:55.652Z,102907.47
2023-02-08T06:44:51.442Z,102902.00
2023-02-08T06:47:39.915Z,102914.22
2023-02-08T06:50:25.369Z,102909.72
2023-02-08T06:53:10.965Z,102921.69
2023-02-08T06:55:56.822Z,102909.84
2023-02-08T06:58:42.084Z,102919.25
2023-02-08T07:01:27.516Z,102931.19
2023-02-08T07:04:12.699Z,102918.22
2023-02-08T07:06:58.277Z,102917.31
2023-02-08T07:09:44.107Z,102919.53
2023-02-08T07:12:29.401Z,102917.28
2023-02-08T07:15:16.040Z,102914.84
2023-02-08T07:18:01.462Z,102922.97
2023-02-08T07:20:46.824Z,102923.25
2023-02-08T07:23:32.362Z,102911.13
2023-02-08T07:26:17.869Z,102908.34
2023-02-08T07:29:03.486Z,102900.25
2023-02-08T07:31:49.216Z,102907.50
2023-02-08T07:34:37.526Z,102894.72
2023-02-08T07:37:24.068Z,102896.00
2023-02-08T07:40:10.295Z,102894.53
2023-02-08T07:42:55.965Z,102902.75
2023-02-08T07:45:52.988Z,102890.16
2023-02-08T07:48:40.440Z,102889.78
2023-02-08T07:51:26.368Z,102901.31
2023-02-08T07:54:11.878Z,102895.03
2023-02-08T07:56:57.324Z,102891.38
2023-02-08T07:59:42.571Z,102885.22
2023-02-08T08:02:27.993Z,102883.25
2023-02-08T08:05:13.411Z,102882.31
2023-02-08T08:07:58.898Z,102872.22
2023-02-08T08:10:44.994Z,102857.03
2023-02-08T08:13:30.362Z,102849.03
2023-02-08T08:16:16.789Z,102853.97
2023-02-08T08:19:02.405Z,102849.28
2023-02-08T08:21:47.702Z,102841.47
2023-02-08T08:24:35.757Z,102837.53
2023-02-08T08:27:21.748Z,102829.88
2023-02-08T08:30:15.742Z,102826.25
2023-02-08T08:33:01.068Z,102820.72
2023-02-08T08:35:47.298Z,102810.13
2023-02-08T08:38:33.032Z,102804.44
2023-02-08T08:41:18.871Z,102795.19
2023-02-08T08:44:04.649Z,102789.28
2023-02-08T08:46:50.343Z,102774.88
2023-02-08T08:49:35.852Z,102767.63
2023-02-08T08:52:21.208Z,102763.91
2023-02-08T08:55:07.554Z,102750.75
2023-02-08T08:57:53.944Z,102743.22
2023-02-08T09:00:39.926Z,102751.94
2023-02-08T09:03:26.882Z,102735.09
2023-02-08T09:06:12.708Z,102743.09
2023-02-08T09:08:57.976Z,102740.72
2023-02-08T09:11:43.437Z,102743.47
2023-02-08T09:14:28.860Z,102735.91
2023-02-08T09:17:14.199Z,102731.16
2023-02-08T09:19:59.633Z,102734.91
2023-02-08T09:22:44.926Z,102735.25
2023-02-08T09:25:30.340Z,102737.38
2023-02-08T09:28:15.648Z,102728.69
2023-02-08T09:31:10.953Z,102723.31
2023-02-08T09:33:58.996Z,102717.09
2023-02-08T09:36:44.459Z,102705.66
2023-02-08T09:39:30.209Z,102706.81
2023-02-08T09:42:28.100Z,102702.03
2023-02-08T09:45:41.354Z,102684.72
2023-02-08T09:48:39.170Z,102679.03
2023-02-08T09:51:37.494Z,102663.63
2023-02-08T09:54:28.450Z,102650.97
2023-02-08T09:57:19.010Z,102644.09
2023-02-08T10:00:20.226Z,102638.75
2023-02-08T10:03:13.335Z,102629.72
2023-02-08T10:05:58.685Z,102633.56
2023-02-08T10:08:46.325Z,102626.13
2023-02-08T10:11:48.821Z,102627.25
2023-02-08T10:14:55.711Z,102623.16
2023-02-08T10:18:01.607Z,102616.47
2023-02-08T10:20:53.372Z,102608.09
2023-02-08T10:24:09.624Z,102597.16
2023-02-08T10:27:31.378Z,102585.56
2023-02-08T10:30:21.025Z,102582.47
2023-02-08T10:33:37.890Z,102577.59
2023-02-08T10:36:29.313Z,102576.03
2023-02-08T10:39:18.991Z,102580.56
2023-02-08T10:42:11.007Z,102573.69
2023-02-08T10:45:22.485Z,102573.06
2023-02-08T10:48:39.742Z,102564.72
2023-02-08T10:51:26.456Z,102563.41
2023-02-08T10:54:14.091Z,102569.91
2023-02-08T10:57:04.558Z,102570.22
2023-02-08T10:59:53.425Z,102560.38
2023-02-08T11:02:41.860Z,102563.41
2023-02-08T11:05:35.965Z,102562.00
2023-02-08T11:08:23.831Z,102562.31
2023-02-08T11:11:10.663Z,102557.34
2023-02-08T11:14:14.013Z,102559.22
2023-02-08T11:17:00.463Z,102542.88
2023-02-08T11:19:46.574Z,102530.81
2023-02-08T11:22:31.914Z,102534.41
2023-02-08T11:25:39.141Z,102531.81
2023-02-08T11:28:30.851Z,102521.47
2023-02-08T11:31:21.452Z,102519.03
2023-02-08T11:34:13.194Z,102510.63
2023-02-08T11:37:03.746Z,102503.09
2023-02-08T11:40:00.906Z,102498.09
2023-02-08T11:42:47.286Z,102492.38
2023-02-08T11:45:35.809Z,102483.13
2023-02-08T11:48:27.009Z,102489.47
2023-02-08T11:51:23.467Z,102479.53
2023-02-08T11:54:39.001Z,102473.81
2023-02-08T11:57:31.864Z,102458.47
2023-02-08T12:00:26.553Z,102457.16
2023-02-08T12:03:16.216Z,102444.41
2023-02-08T12:06:28.504Z,102440.31
2023-02-08T12:09:19.892Z,102455.25
2023-02-08T12:12:41.625Z,102445.06
2023-02-08T12:15:40.165Z,102439.28
2023-02-08T12:18:41.064Z,102435.03
2023-02-08T12:21:32.096Z,102430.00
2023-02-08T12:24:55.647Z,102415.06
2023-02-08T12:27:56.903Z,102408.06
2023-02-08T12:31:22.908Z,102413.09
2023-02-08T12:34:27.526Z,102400.84
2023-02-08T12:38:01.153Z,102399.84
2023-02-08T12:40:55.396Z,102392.97
2023-02-08T12:43:40.950Z,102390.53
2023-02-08T12:46:50.096Z,102387.97
2023-02-08T12:49:57.973Z,102370.63
2023-02-08T12:52:55.284Z,102365.34
2023-02-08T12:55:42.865Z,102358.44
2023-02-08T12:58:35.283Z,102357.78
2023-02-08T13:01:33.311Z,102355.47
2023-02-08T13:04:33.097Z,102342.50
2023-02-08T13:07:23.924Z,102331.34
2023-02-08T13:10:38.278Z,102327.13
2023-02-08T13:13:28.560Z,102325.34
2023-02-08T13:16:22.152Z,102308.75
2023-02-08T13:19:24.432Z,102325.19
2023-02-08T13:22:12.963Z,102316.50
2023-02-08T13:25:07.554Z,102315.44
2023-02-08T13:27:53.832Z,102297.16
2023-02-08T13:30:40.393Z,102310.13
2023-02-08T13:34:09.104Z,102282.16
2023-02-08T13:36:59.791Z,102281.28
2023-02-08T13:39:48.340Z,102264.75
2023-02-08T13:42:40.236Z,102258.63
2023-02-08T13:45:28.602Z,102255.16
2023-02-08T13:48:18.287Z,102258.59
2023-02-08T13:51:04.909Z,102244.72
2023-02-08T13:53:53.297Z,102246.53
2023-02-08T13:56:48.236Z,102240.47
2023-02-08T13:59:41.415Z,102236.13
2023-02-08T14:02:28.321Z,102222.22
2023-02-08T14:05:40.518Z,102224.75
2023-02-08T14:09:04.350Z,102213.47
2023-02-08T14:12:09.631Z,102209.91
2023-02-08T14:15:23.193Z,102201.94
2023-02-08T14:18:36.827Z,102199.06
2023-02-08T14:21:42.745Z,102190.25
2023-02-08T14:24:39.561Z,102189.13
2023-02-08T14:27:34.103Z,102195.03
2023-02-08T14:30:22.074Z,102190.59
2023-02-08T14:33:07.602Z,102190.59
2023-02-08T14:36:02.863Z,102181.78
2023-02-08T14:39:03.937Z,102192.16
2023-02-08T14:42:08.686Z,102178.97
2023-02-08T14:44:58.023Z,102171.09
2023-02-08T14:47:43.479Z,102170.16
2023-02-08T14:50:32.689Z,102180.50
2023-02-08T14:53:25.425Z,102170.88
2023-02-08T14:56:31.760Z,102165.63
2023-02-08T14:59:20.949Z,102171.63
2023-02-08T15:02:20.270Z,102167.28
2023-02-08T15:05:09.971Z,102165.38
2023-02-08T15:08:00.884Z,102157.47
2023-02-08T15:10:46.319Z,102153.03
2023-02-08T15:13:32.051Z,102155.56
2023-02-08T15:16:17.820Z,102150.28
2023-02-08T15:19:06.044Z,102148.47
2023-02-08T15:21:51.881Z,102161.38
2023-02-08T15:24:37.957Z,102162.06
2023-02-08T15:27:30.180Z,102173.22
2023-02-08T15:30:46.518Z,102151.41
2023-02-08T15:33:33.103Z,102165.19
2023-02-08T15:36:32.963Z,102158.94
2023-02-08T15:39:38.624Z,102152.75
2023-02-08T15:42:29.388Z,102163.03
2023-02-08T15:45:31.346Z,102169.88
2023-02-08T15:48:16.966Z,102169.69
2023-02-08T15:51:02.809Z,102160.97
2023-02-08T15:53:50.707Z,102172.28
2023-02-08T15:56:42.395Z,102183.50
2023-02-08T15:59:32.911Z,102182.50
2023-02-08T16:02:24.380Z,102188.44
2023-02-08T16:05:24.151Z,102185.75
2023-02-08T16:08:22.710Z,102173.59
2023-02-08T16:11:14.103Z,102156.09
2023-02-08T16:14:01.875Z,102148.19
2023-02-08T16:16:54.027Z,102161.03
2023-02-08T16:19:50.568Z,102158.28
2023-02-08T16:22:36.277Z,102169.41
2023-02-08T16:25:45.932Z,102167.47
2023-02-08T16:28:33.845Z,102168.34
2023-02-08T16:31:26.940Z,102182.16
2023-02-08T16:34:19.091Z,102192.47
2023-02-08T16:37:07.473Z,102194.97
2023-02-08T16:40:44.045Z,102185.25
2023-02-08T16:43:33.212Z,102187.75
2023-02-08T16:46:22.201Z,102202.38
2023-02-08T16:49:10.314Z,102196.16
2023-02-08T16:51:59.041Z,102201.31
2023-02-08T16:54:44.672Z,102197.66
2023-02-08T16:57:48.875Z,102197.50
2023-02-08T17:00:35.703Z,102216.44
2023-02-08T17:03:21.072Z,102216.28
2023-02-08T17:06:07.552Z,102234.47
2023-02-08T17:08:53.063Z,102233.56
2023-02-08T17:11:39.938Z,102239.59
2023-02-08T17:14:25.471Z,102255.94
2023-02-08T17:17:10.879Z,102249.03
2023-02-08T17:19:56.202Z,102256.00
2023-02-08T17:22:41.594Z,102261.25
2023-02-08T17:25:29.012Z,102269.72
2023-02-08T17:28:18.538Z,102278.44
2023-02-08T17:31:05.304Z,102263.50
2023-02-08T17:33:50.811Z,102261.56
2023-02-08T17:36:37.371Z,102257.09
2023-02-08T17:39:22.904Z,102249.94
2023-02-08T17:42:08.543Z,102249.69
2023-02-08T17:44:53.908Z,102243.31
2023-02-08T17:47:41.656Z,102239.59
2023-02-08T17:50:27.569Z,102242.97
2023-02-08T17:53:13.151Z,102243.56
2023-02-08T17:55:58.480Z,102228.88
2023-02-08T17:58:44.907Z,102239.25
2023-02-08T18:01:30.674Z,102236.66
2023-02-08T18:04:16.047Z,102235.63
2023-02-08T18:07:01.512Z,102244.19
2023-02-08T18:09:47.117Z,102231.28
2023-02-08T18:12:35.151Z,102236.47
2023-02-08T18:15:22.389Z,102234.81
2023-02-08T18:18:07.622Z,102236.72
2023-02-08T18:20:52.922Z,102228.09
2023-02-08T18:23:38.429Z,102241.91
2023-02-08T18:26:25.067Z,102217.69
2023-02-08T18:29:11.298Z,102226.22
2023-02-08T18:31:56.982Z,102213.41
2023-02-08T18:34:43.210Z,102231.69
2023-02-08T18:37:29.086Z,102233.53
2023-02-08T18:40:14.528Z,102220.56
2023-02-08T18:42:59.885Z,102205.81
2023-02-08T18:45:49.782Z,102217.97
2023-02-08T18:48:37.924Z,102217.16
2023-02-08T18:51:25.122Z,102219.84
2023-02-08T18:54:12.665Z,102221.63
2023-02-08T18:56:58.073Z,102221.63
2023-02-08T18:59:43.664Z,102214.81
2023-02-08T19:02:29.522Z,102228.66
2023-02-08T19:05:14.821Z,102228.72
2023-02-08T19:08:00.289Z,102224.56
2023-02-08T19:10:45.528Z,102213.28
2023-02-08T19:13:32.027Z,102228.91
2023-02-08T19:16:19.017Z,102220.28
2023-02-08T19:19:06.445Z,102214.34
2023-02-08T19:21:51.949Z,102218.16
2023-02-08T19:24:37.792Z,102225.22
2023-02-08T19:27:23.302Z,102224.31
2023-02-08T19:30:09.595Z,102217.44
2023-02-08T19:32:55.266Z,102230.59
2023-02-08T19:35:40.691Z,102232.41
2023-02-08T19:38:26.062Z,102234.41
2023-02-08T19:41:16.401Z,102236.28
2023-02-08T19:44:04.840Z,102241.63
2023-02-08T19:46:55.194Z,102249.63
2023-02-08T19:49:40.660Z,102251.41
2023-02-08T19:52:25.922Z,102258.13
2023-02-08T19:55:11.311Z,102264.94
2023-02-08T19:57:56.627Z,102263.19
2023-02-08T20:00:41.876Z,102261.28
2023-02-08T20:03:27.204Z,102256.16
2023-02-08T20:06:24.191Z,102260.63
2023-02-08T20:09:09.993Z,102277.16
2023-02-08T20:11:57.547Z,102279.75
2023-02-08T20:14:43.987Z,102281.81
2023-02-08T20:17:29.701Z,102282.91
2023-02-08T20:20:15.202Z,102282.19
2023-02-08T20:23:02.961Z,102281.41
2023-02-08T20:25:50.937Z,102285.94
2023-02-08T20:28:38.542Z,102308.56
2023-02-08T20:31:25.789Z,102306.88
2023-02-08T20:34:14.083Z,102306.16
2023-02-08T20:37:08.400Z,102344.31
2023-02-08T20:39:54.147Z,102366.31
2023-02-08T20:42:39.782Z,102380.47
2023-02-08T20:45:25.278Z,102395.84
2023-02-08T20:48:10.584Z,102402.69
2023-02-08T20:50:56.079Z,102416.50
2023-02-08T20:53:42.975Z,102437.38
2023-02-08T20:56:34.441Z,102447.06
2023-02-08T20:59:19.749Z,102458.72
2023-02-08T21:02:05.930Z,102458.53
2023-02-08T21:04:51.372Z,102465.06
2023-02-08T21:07:40.387Z,102470.63
2023-02-08T21:10:26.078Z,102481.16
2023-02-08T21:13:11.430Z,102486.59
2023-02-08T21:15:56.784Z,102483.56
2023-02-08T21:18:42.773Z,102492.75
2023-02-08T21:21:28.712Z,102495.03
2023-02-08T21:24:14.605Z,102499.94
2023-02-08T21:27:00.124Z,102502.25
2023-02-08T21:29:45.360Z,102514.19
2023-02-08T21:32:30.739Z,102515.88
2023-02-08T21:35:17.700Z,102529.50
2023-02-08T21:38:03.131Z,102516.63
2023-02-08T21:40:48.837Z,102514.03
2023-02-08T21:43:34.033Z,102528.91
2023-02-08T21:46:19.733Z,102536.81
2023-02-08T21:49:23.752Z,102547.16
2023-02-08T21:52:29.539Z,102548.19
2023-02-08T21:55:15.225Z,102557.75
2023-02-08T21:58:00.845Z,102569.94
2023-02-08T22:00:46.509Z,102575.19
2023-02-08T22:03:32.092Z,102584.72
2023-02-08T22:06:17.501Z,102590.88
2023-02-08T22:09:03.168Z,102590.06
2023-02-08T22:11:49.270Z,102590.06
2023-02-08T22:14:35.751Z,102597.84
2023-02-08T22:17:21.526Z,102598.72
2023-02-08T22:20:08.134Z,102603.00
2023-02-08T22:22:55.205Z,102601.31
2023-02-08T22:25:41.129Z,102599.59
2023-02-08T22:28:26.473Z,102605.69
2023-02-08T22:31:15.241Z,102612.53
2023-02-08T22:34:01.054Z,102609.94
2023-02-08T22:36:46.863Z,102614.31
2023-02-08T22:39:33.066Z,102616.03
2023-02-08T22:42:18.786Z,102626.38
2023-02-08T22:45:04.311Z,102624.53
2023-02-08T22:47:50.041Z,102631.47
2023-02-08T22:50:37.595Z,102631.47
2023-02-08T22:53:23.163Z,102626.31
2023-02-08T22:56:09.557Z,102621.13
2023-02-08T22:58:54.867Z,102621.13
2023-02-08T23:01:40.212Z,102627.91
2023-02-08T23:04:25.532Z,102631.28
2023-02-08T23:07:11.090Z,102637.25
2023-02-08T23:09:56.564Z,102644.00
2023-02-08T23:12:42.104Z,102641.34
2023-02-08T23:15:27.487Z,102636.81
2023-02-08T23:18:12.921Z,102638.22
2023-02-08T23:20:58.212Z,102647.38
2023-02-08T23:23:45.106Z,102641.72
2023-02-08T23:26:30.431Z,102639.56
2023-02-08T23:29:15.766Z,102643.50
2023-02-08T23:32:01.167Z,102651.75
2023-02-08T23:34:46.565Z,102642.75
2023-02-08T23:37:31.973Z,102636.41
2023-02-08T23:40:17.337Z,102634.38
2023-02-08T23:43:02.804Z,102636.38
2023-02-08T23:45:48.154Z,102639.19
2023-02-08T23:48:33.738Z,102631.66
2023-02-08T23:51:22.007Z,102644.88
2023-02-08T23:54:07.514Z,102649.50
2023-02-08T23:56:53.144Z,102650.78
2023-02-08T23:59:39.666Z,102648.28
